Time;durP1;ratioP1;P1;durP2;ratioP2;P2;SDS_P1;SDS_P2;PMS_P1;PMS_P2;Temp;Humidity;BMP_temperature;BMP_pressure;BME280_temperature;BME280_humidity;BME280_pressure;Samples;Min_cycle;Max_cycle;Signal;HPM_P1;HPM_P2
2023/07/23 00:00:21;;;;;;;6.25;2.42;;;;;;;23.54;63.51;101107.28;5033761;28;20432;-78
2023/07/23 00:02:46;;;;;;;4.30;2.38;;;;;;;23.58;63.11;101105.72;5033447;28;20767;-79
2023/07/23 00:05:12;;;;;;;6.63;2.27;;;;;;;23.69;63.07;101122.94;5033066;28;20382;-79
2023/07/23 00:07:37;;;;;;;4.40;2.38;;;;;;;23.67;63.01;101140.22;5041910;28;20401;-80
2023/07/23 00:10:03;;;;;;;5.07;2.73;;;;;;;23.57;63.25;101150.91;5036366;28;20759;-79
2023/07/23 00:12:29;;;;;;;5.50;2.40;;;;;;;23.56;63.00;101154.66;5036446;28;20461;-80
2023/07/23 00:14:54;;;;;;;14.10;10.85;;;;;;;23.61;63.20;101157.47;5034472;28;20393;-79
2023/07/23 00:17:20;;;;;;;6.40;3.97;;;;;;;23.62;62.92;101161.81;5036064;28;20464;-78
2023/07/23 00:19:45;;;;;;;5.65;2.47;;;;;;;23.46;63.17;101155.34;5034743;28;20402;-79
2023/07/23 00:22:11;;;;;;;6.93;3.70;;;;;;;23.42;63.65;101165.00;5034351;28;20394;-79
2023/07/23 00:24:37;;;;;;;5.30;2.20;;;;;;;23.44;63.60;101157.47;5034268;28;20858;-78
2023/07/23 00:27:03;;;;;;;8.27;4.72;;;;;;;23.42;63.53;101150.66;5034043;28;20905;-78
2023/07/23 00:29:28;;;;;;;5.07;2.70;;;;;;;23.42;63.11;101156.06;5032968;28;20416;-79
2023/07/23 00:31:54;;;;;;;6.03;2.60;;;;;;;23.33;63.23;101157.53;5031184;28;20386;-78
2023/07/23 00:34:20;;;;;;;7.40;2.53;;;;;;;23.14;63.68;101157.75;5032181;28;20383;-78
2023/07/23 00:36:46;;;;;;;6.22;2.80;;;;;;;23.14;63.55;101152.34;5032289;28;20473;-78
2023/07/23 00:39:11;;;;;;;7.00;3.90;;;;;;;23.20;63.45;101140.53;5033051;28;20377;-78
2023/07/23 00:41:37;;;;;;;7.40;4.50;;;;;;;23.34;62.94;101134.84;5031462;28;20406;-78
2023/07/23 00:44:03;;;;;;;6.03;3.00;;;;;;;23.36;62.74;101133.50;5032869;28;20793;-78
2023/07/23 00:46:29;;;;;;;6.03;2.63;;;;;;;23.27;62.88;101124.16;5032804;28;20381;-78
2023/07/23 00:48:54;;;;;;;7.25;3.45;;;;;;;23.37;62.56;101126.22;5032072;28;20378;-78
2023/07/23 00:51:20;;;;;;;6.37;2.20;;;;;;;23.37;62.17;101124.34;5032374;28;20382;-79
2023/07/23 00:53:47;;;;;;;7.38;2.97;;;;;;;23.26;62.53;101120.66;5031460;28;20437;-78
2023/07/23 00:56:13;;;;;;;4.65;2.20;;;;;;;23.11;62.77;101125.78;5032043;28;20381;-79
2023/07/23 00:58:39;;;;;;;4.90;2.20;;;;;;;22.98;63.23;101126.88;5032313;28;20413;-79
2023/07/23 01:01:04;;;;;;;5.13;2.30;;;;;;;22.86;63.27;101128.81;5032644;28;20515;-79
2023/07/23 01:03:30;;;;;;;6.10;2.37;;;;;;;22.82;63.34;101125.78;5032841;28;20452;-79
2023/07/23 01:06:00;;;;;;;5.45;2.53;;;;;;;22.85;63.28;101128.00;5032703;28;20862;-79
2023/07/23 01:08:26;;;;;;;6.15;2.80;;;;;;;22.87;63.39;101131.28;5032869;28;20724;-79
2023/07/23 01:10:52;;;;;;;5.60;2.30;;;;;;;22.93;63.26;101134.09;5031631;28;20842;-79
2023/07/23 01:13:18;;;;;;;5.50;3.47;;;;;;;22.94;62.88;101127.59;5031797;28;20478;-78
2023/07/23 01:15:43;;;;;;;4.28;2.38;;;;;;;22.89;63.13;101125.63;5033133;28;20382;-78
2023/07/23 01:18:11;;;;;;;5.87;2.60;;;;;;;22.86;63.00;101116.09;5029951;28;20405;-78
2023/07/23 01:20:36;;;;;;;5.57;3.27;;;;;;;23.03;62.91;101124.28;5032200;28;20433;-78
2023/07/23 01:23:02;;;;;;;7.93;2.83;;;;;;;23.01;62.63;101123.69;5029496;28;20856;-78
2023/07/23 01:25:27;;;;;;;5.27;3.50;;;;;;;22.87;62.88;101115.06;5030332;28;20390;-78
2023/07/23 01:27:53;;;;;;;4.22;2.30;;;;;;;23.01;62.72;101122.84;5030054;28;20772;-78
2023/07/23 01:30:19;;;;;;;4.93;3.37;;;;;;;22.88;62.81;101130.19;5029346;28;20371;-78
2023/07/23 01:32:46;;;;;;;4.35;2.42;;;;;;;22.88;63.01;101130.19;5029750;28;20402;-78
2023/07/23 01:35:14;;;;;;;7.00;2.85;;;;;;;22.82;62.76;101131.19;5029833;28;20477;-78
2023/07/23 01:37:41;;;;;;;7.35;2.90;;;;;;;22.88;62.79;101148.31;5032392;28;20382;-78
2023/07/23 01:40:07;;;;;;;7.37;2.83;;;;;;;22.78;62.85;101146.25;5037253;28;20410;-79
2023/07/23 01:42:33;;;;;;;4.60;2.50;;;;;;;22.70;63.38;101150.13;5030234;28;20926;-79
2023/07/23 01:45:04;;;;;;;5.55;3.10;;;;;;;22.65;63.38;101141.94;5028849;28;20367;-78
2023/07/23 01:47:30;;;;;;;5.43;2.70;;;;;;;22.68;63.21;101144.16;5030603;28;20516;-77
2023/07/23 01:49:55;;;;;;;7.50;3.07;;;;;;;22.84;62.66;101136.34;5031784;28;20403;-78
2023/07/23 01:52:21;;;;;;;7.28;3.67;;;;;;;22.86;62.69;101153.16;5031064;28;20812;-77
2023/07/23 01:54:46;;;;;;;6.50;3.00;;;;;;;22.77;62.83;101141.06;5033956;28;20378;-77
2023/07/23 01:57:11;;;;;;;6.40;3.30;;;;;;;22.70;63.07;101135.81;5039211;28;20821;-78
2023/07/23 01:59:37;;;;;;;5.50;2.65;;;;;;;22.64;63.20;101140.28;5031426;28;20367;-77
2023/07/23 02:02:06;;;;;;;5.10;3.10;;;;;;;22.65;63.18;101150.06;5029056;28;20377;-78
2023/07/23 02:04:31;;;;;;;5.30;3.63;;;;;;;22.71;62.94;101138.28;5031079;28;20731;-79
2023/07/23 02:06:57;;;;;;;4.07;2.77;;;;;;;22.70;63.05;101138.50;5032631;28;20373;-78
2023/07/23 02:09:22;;;;;;;9.97;3.70;;;;;;;22.67;63.12;101134.41;5032939;28;20416;-79
2023/07/23 02:11:48;;;;;;;4.90;2.80;;;;;;;22.76;62.80;101137.56;5031542;28;20371;-78
2023/07/23 02:14:13;;;;;;;5.73;2.90;;;;;;;22.70;62.91;101142.03;5030619;28;20417;-78
2023/07/23 02:16:39;;;;;;;5.40;2.83;;;;;;;22.61;63.23;101148.06;5031260;28;20410;-77
2023/07/23 02:19:04;;;;;;;4.28;2.58;;;;;;;22.54;63.26;101140.09;5030908;28;20397;-78
2023/07/23 02:21:29;;;;;;;4.23;2.23;;;;;;;22.56;63.05;101132.56;5031287;28;20406;-78
2023/07/23 02:23:55;;;;;;;5.53;3.07;;;;;;;22.73;62.77;101142.63;5031404;28;20378;-78
2023/07/23 02:26:20;;;;;;;6.50;4.60;;;;;;;22.85;62.16;101136.09;5031050;28;20378;-77
2023/07/23 02:28:46;;;;;;;5.07;3.47;;;;;;;23.02;61.76;101128.03;5029582;28;20478;-78
2023/07/23 02:31:12;;;;;;;4.13;3.10;;;;;;;23.08;61.45;101128.97;5034736;28;20405;-78
2023/07/23 02:33:37;;;;;;;5.15;2.97;;;;;;;23.07;61.50;101128.16;5034865;28;20704;-78
2023/07/23 02:36:03;;;;;;;4.03;2.73;;;;;;;23.08;61.05;101129.81;5034816;28;20461;-78
2023/07/23 02:38:29;;;;;;;6.90;3.63;;;;;;;23.12;61.05;101119.31;5036253;28;20467;-79
2023/07/23 02:40:58;;;;;;;5.30;3.00;;;;;;;23.19;60.90;101124.56;5036359;28;20453;-78
2023/07/23 02:43:24;;;;;;;6.67;2.87;;;;;;;23.21;60.79;101128.69;5038402;28;20375;-78
2023/07/23 02:45:49;;;;;;;4.50;2.97;;;;;;;23.23;60.66;101129.25;5037510;28;20432;-78
2023/07/23 02:48:15;;;;;;;4.10;3.17;;;;;;;23.23;60.32;101123.03;5038045;28;20379;-78
2023/07/23 02:50:41;;;;;;;6.13;2.70;;;;;;;23.06;61.01;101117.56;5036637;28;20386;-77
2023/07/23 02:53:06;;;;;;;3.80;2.23;;;;;;;22.83;61.76;101123.88;5037467;28;20402;-77
2023/07/23 02:55:33;;;;;;;3.87;2.20;;;;;;;22.80;61.28;101130.59;5037181;28;20402;-78
2023/07/23 02:58:00;;;;;;;4.38;2.55;;;;;;;22.85;61.09;101128.00;5033098;28;20401;-76
2023/07/23 03:00:28;;;;;;;6.32;2.60;;;;;;;22.91;60.81;101124.31;5032494;28;20402;-77
2023/07/23 03:02:54;;;;;;;5.30;2.40;;;;;;;22.86;61.40;101131.53;5030947;28;20386;-77
2023/07/23 03:05:20;;;;;;;5.82;2.80;;;;;;;22.79;61.66;101125.44;5031804;28;20871;-78
2023/07/23 03:07:45;;;;;;;7.20;2.50;;;;;;;22.53;62.53;101119.53;5031549;28;20386;-77
2023/07/23 03:10:11;;;;;;;5.73;2.47;;;;;;;22.42;63.07;101125.78;5031631;28;20386;-77
2023/07/23 03:12:36;;;;;;;4.28;2.22;;;;;;;22.22;63.79;101135.09;5031006;28;20390;-77
2023/07/23 03:15:02;;;;;;;4.90;2.20;;;;;;;22.12;64.02;101127.56;5031141;28;20393;-77
2023/07/23 03:17:28;;;;;;;8.02;2.60;;;;;;;22.14;64.28;101124.63;5030524;28;20375;-77
2023/07/23 03:19:53;;;;;;;6.53;2.20;;;;;;;22.00;64.42;101123.25;5030667;28;20484;-78
2023/07/23 03:22:19;;;;;;;4.07;1.80;;;;;;;21.88;64.88;101128.66;5031890;28;20942;-77
2023/07/23 03:24:45;;;;;;;3.60;1.70;;;;;;;21.77;65.46;101131.13;5032452;28;20383;-76
2023/07/23 03:27:11;;;;;;;4.63;1.85;;;;;;;21.68;65.89;101135.22;5035725;28;20375;-77
2023/07/23 03:29:36;;;;;;;4.15;1.80;;;;;;;21.49;66.19;101136.38;5036863;28;20375;-78
2023/07/23 03:32:02;;;;;;;4.83;1.80;;;;;;;21.43;66.68;101138.09;5032245;28;20386;-77
2023/07/23 03:34:27;;;;;;;4.22;1.80;;;;;;;21.48;66.44;101148.22;5031540;28;20378;-77
2023/07/23 03:36:53;;;;;;;6.17;2.50;;;;;;;21.50;66.60;101151.50;5031835;28;20371;-76
2023/07/23 03:39:18;;;;;;;3.43;1.83;;;;;;;21.40;66.86;101149.34;5031149;28;20401;-76
2023/07/23 03:41:46;;;;;;;6.03;1.92;;;;;;;21.44;66.55;101147.81;5029973;28;20613;-76
2023/07/23 03:44:11;;;;;;;8.63;2.05;;;;;;;21.36;66.95;101164.34;5031690;28;20391;-77
2023/07/23 03:46:45;;;;;;;5.03;2.10;;;;;;;21.23;67.63;101169.91;5035813;28;20804;-77
2023/07/23 03:49:11;;;;;;;4.82;1.85;;;;;;;21.21;67.93;101172.84;5029300;28;20993;-77
2023/07/23 03:51:37;;;;;;;6.00;1.85;;;;;;;21.19;68.01;101166.88;5029728;28;20882;-76
2023/07/23 03:54:02;;;;;;;4.75;1.90;;;;;;;21.28;67.86;101173.56;5029305;28;20382;-77
2023/07/23 03:56:28;;;;;;;4.73;1.70;;;;;;;21.27;68.06;101180.03;5030332;28;20389;-76
2023/07/23 03:58:53;;;;;;;5.00;1.70;;;;;;;21.31;68.17;101191.19;5023254;28;20395;-76
2023/07/23 04:01:19;;;;;;;3.17;1.42;;;;;;;21.16;68.92;101188.91;5029303;28;20470;-76
2023/07/23 04:03:45;;;;;;;4.23;1.50;;;;;;;21.28;68.90;101187.06;5031062;28;20378;-76
2023/07/23 04:06:10;;;;;;;2.83;1.70;;;;;;;21.45;68.73;101192.66;5031162;28;20392;-76
2023/07/23 04:08:36;;;;;;;6.37;1.80;;;;;;;21.60;68.49;101208.41;5031682;28;20393;-76
2023/07/23 04:11:01;;;;;;;3.80;1.88;;;;;;;21.59;68.34;101195.97;5029453;28;20375;-76
2023/07/23 04:13:27;;;;;;;3.50;1.93;;;;;;;21.71;68.22;101204.09;5030025;28;20391;-77
2023/07/23 04:15:52;;;;;;;3.40;1.80;;;;;;;21.85;67.75;101197.41;5030401;28;20472;-75
2023/07/23 04:18:18;;;;;;;5.60;1.90;;;;;;;21.89;67.99;101200.47;5047246;28;20404;-76
2023/07/23 04:20:44;;;;;;;3.83;2.00;;;;;;;21.96;67.38;101203.88;5017521;28;20963;-75
2023/07/23 04:23:09;;;;;;;4.35;2.10;;;;;;;22.01;67.64;101214.00;5022894;28;20435;-76
2023/07/23 04:25:35;;;;;;;5.80;2.20;;;;;;;22.12;67.23;101200.47;5022461;28;20394;-76
2023/07/23 04:28:00;;;;;;;5.10;2.05;;;;;;;22.29;66.84;101208.72;5020222;28;20449;-80
2023/07/23 04:30:27;;;;;;;2.40;2.00;;;;;;;22.37;66.34;101212.94;5020049;28;20471;-76
2023/07/23 04:32:53;;;;;;;4.32;2.13;;;;;;;22.58;66.30;101219.63;5017661;28;20494;-76
2023/07/23 04:35:20;;;;;;;2.50;2.10;;;;;;;22.75;65.49;101214.28;5021812;28;20491;-76
2023/07/23 04:37:46;;;;;;;3.65;2.42;;;;;;;22.71;65.28;101223.94;5019505;28;20848;-77
2023/07/23 04:40:11;;;;;;;3.90;2.70;;;;;;;22.88;64.91;101224.00;5015763;28;20423;-75
2023/07/23 04:42:37;;;;;;;4.30;2.40;;;;;;;22.95;64.38;101226.56;5019851;28;20494;-77
2023/07/23 04:45:03;;;;;;;4.07;2.83;;;;;;;23.00;64.34;101216.69;5028556;28;20382;-75
2023/07/23 04:47:28;;;;;;;6.83;2.63;;;;;;;23.06;64.30;101229.25;5030420;28;20371;-75
2023/07/23 04:49:56;;;;;;;6.07;2.63;;;;;;;23.15;63.49;101223.47;5027236;28;20877;-76
2023/07/23 04:52:22;;;;;;;3.80;2.63;;;;;;;23.24;62.68;101219.31;5018225;28;20759;-76
2023/07/23 04:54:47;;;;;;;5.22;2.50;;;;;;;23.43;62.64;101231.56;5018260;28;20447;-76
2023/07/23 04:57:13;;;;;;;5.00;2.60;;;;;;;23.48;62.54;101223.56;5017110;28;20404;-76
2023/07/23 04:59:38;;;;;;;3.97;2.57;;;;;;;23.65;62.24;101230.88;5016454;28;20454;-76
2023/07/23 05:02:04;;;;;;;5.63;2.90;;;;;;;23.77;61.83;101238.91;5018023;28;20434;-77
2023/07/23 05:04:29;;;;;;;4.83;3.50;;;;;;;23.87;61.65;101235.59;5018407;28;20859;-76
2023/07/23 05:06:55;;;;;;;6.50;3.50;;;;;;;24.00;61.35;101236.09;5017873;28;20378;-75
2023/07/23 05:09:20;;;;;;;4.40;3.00;;;;;;;24.13;60.83;101231.38;5017101;28;20457;-75
2023/07/23 05:11:46;;;;;;;5.80;3.20;;;;;;;24.37;60.45;101223.88;5014374;28;20829;-76
2023/07/23 05:14:11;;;;;;;5.45;3.17;;;;;;;24.48;59.97;101231.06;5015282;28;20756;-75
2023/07/23 05:16:37;;;;;;;3.50;3.03;;;;;;;24.68;59.45;101224.31;5021750;28;20378;-76
2023/07/23 05:19:03;;;;;;;3.77;3.10;;;;;;;24.82;58.74;101227.47;5016735;28;20403;-77
2023/07/23 05:21:29;;;;;;;4.40;3.38;;;;;;;24.85;58.71;101224.22;5010267;28;20403;-76
2023/07/23 05:23:54;;;;;;;3.90;2.92;;;;;;;24.90;58.84;101227.00;5009876;28;20380;-76
2023/07/23 05:26:19;;;;;;;3.03;2.72;;;;;;;25.04;58.24;101228.25;5009417;28;20421;-75
2023/07/23 05:28:45;;;;;;;4.40;2.73;;;;;;;25.07;57.83;101233.19;5010001;28;20663;-76
2023/07/23 05:31:10;;;;;;;6.13;3.00;;;;;;;25.17;57.73;101232.47;5008799;28;20384;-76
2023/07/23 05:33:36;;;;;;;6.63;3.27;;;;;;;25.31;57.73;101232.91;5017004;28;20887;-76
2023/07/23 05:36:02;;;;;;;4.40;3.22;;;;;;;25.36;57.22;101224.81;5013951;28;20380;-77
2023/07/23 05:38:27;;;;;;;4.13;3.27;;;;;;;25.36;56.71;101225.63;5011981;28;20384;-77
2023/07/23 05:40:57;;;;;;;5.50;3.47;;;;;;;25.47;56.40;101220.31;5012357;28;20408;-76
2023/07/23 05:43:22;;;;;;;7.15;3.83;;;;;;;25.61;56.11;101220.72;5011110;28;20458;-76
2023/07/23 05:45:48;;;;;;;5.67;4.00;;;;;;;25.67;56.38;101228.63;5010998;28;20820;-75
2023/07/23 05:48:13;;;;;;;6.97;4.22;;;;;;;25.70;56.02;101219.97;5012282;28;20447;-77
2023/07/23 05:50:39;;;;;;;5.22;4.50;;;;;;;25.86;55.31;101214.69;5013057;28;20405;-75
2023/07/23 05:53:04;;;;;;;7.43;4.60;;;;;;;25.88;54.60;101221.47;5011681;28;20388;-77
2023/07/23 05:55:30;;;;;;;7.93;4.63;;;;;;;25.85;54.82;101219.28;5010650;28;20383;-76
2023/07/23 05:57:55;;;;;;;6.63;4.80;;;;;;;25.86;54.67;101233.69;5010654;28;20420;-76
2023/07/23 06:00:21;;;;;;;8.57;4.65;;;;;;;25.86;54.32;101244.56;5010655;28;20404;-77
2023/07/23 06:02:46;;;;;;;8.05;5.10;;;;;;;25.97;54.24;101242.75;5009860;28;20450;-75
2023/07/23 06:05:12;;;;;;;8.27;4.90;;;;;;;25.85;54.41;101245.63;5012136;28;20367;-75
2023/07/23 06:07:37;;;;;;;7.97;4.90;;;;;;;25.83;54.23;101240.44;5015121;28;20471;-76
2023/07/23 06:10:03;;;;;;;8.02;5.20;;;;;;;25.93;54.26;101247.91;5014849;28;20380;-75
2023/07/23 06:12:29;;;;;;;10.40;5.13;;;;;;;25.96;53.90;101251.97;5014473;28;20923;-77
2023/07/23 06:14:54;;;;;;;7.80;4.90;;;;;;;25.97;53.85;101257.16;5014401;28;20379;-75
2023/07/23 06:17:20;;;;;;;8.57;5.28;;;;;;;26.03;54.00;101256.09;5014574;28;20463;-76
2023/07/23 06:19:45;;;;;;;8.03;5.07;;;;;;;26.02;53.25;101261.78;5014354;28;20372;-76
2023/07/23 06:22:11;;;;;;;6.88;4.82;;;;;;;26.03;53.07;101253.38;5014247;28;20462;-76
2023/07/23 06:24:37;;;;;;;8.30;5.47;;;;;;;26.19;52.88;101257.03;5014263;28;20388;-76
2023/07/23 06:27:03;;;;;;;6.85;4.93;;;;;;;26.13;53.29;101256.19;5014244;28;20471;-76
2023/07/23 06:29:30;;;;;;;8.27;5.40;;;;;;;26.31;53.62;101240.53;5013402;28;20453;-76
2023/07/23 06:31:56;;;;;;;9.15;5.60;;;;;;;26.45;52.86;101238.16;5014517;28;20383;-75
2023/07/23 06:34:21;;;;;;;7.85;5.57;;;;;;;26.61;52.33;101237.19;5029564;28;20866;-75
2023/07/23 06:36:47;;;;;;;11.27;7.10;;;;;;;26.74;52.42;101229.63;5014044;28;20450;-77
2023/07/23 06:39:13;;;;;;;9.10;7.03;;;;;;;26.72;51.82;101232.59;5014400;28;20384;-77
2023/07/23 06:41:40;;;;;;;13.20;8.67;;;;;;;26.58;52.26;101234.97;5013521;28;20412;-77
2023/07/23 06:44:06;;;;;;;9.95;7.22;;;;;;;26.59;51.84;101243.94;5014805;28;20718;-76
2023/07/23 06:46:32;;;;;;;8.47;7.00;;;;;;;26.56;51.27;101239.03;5017011;28;20936;-76
2023/07/23 06:48:58;;;;;;;11.88;7.50;;;;;;;26.69;51.32;101249.47;5015594;28;20869;-76
2023/07/23 06:51:25;;;;;;;11.03;7.73;;;;;;;26.79;51.21;101254.13;5015872;28;20368;-77
2023/07/23 06:53:50;;;;;;;8.85;7.90;;;;;;;27.07;50.91;101266.47;5015629;28;20376;-76
2023/07/23 06:56:17;;;;;;;10.43;8.13;;;;;;;27.07;50.68;101269.19;5030835;28;20392;-76
2023/07/23 06:58:43;;;;;;;12.18;8.52;;;;;;;27.27;50.28;101273.91;5014277;28;20454;-75
2023/07/23 07:01:09;;;;;;;10.07;8.43;;;;;;;27.29;50.15;101273.66;5013057;28;20837;-75
2023/07/23 07:03:35;;;;;;;12.03;7.87;;;;;;;27.12;50.08;101279.25;5013989;28;20376;-77
2023/07/23 07:06:01;;;;;;;11.70;8.48;;;;;;;27.07;50.31;101270.00;5014787;28;20447;-77
2023/07/23 07:08:28;;;;;;;13.50;8.27;;;;;;;27.13;49.87;101259.13;5022896;28;20379;-77
2023/07/23 07:10:58;;;;;;;13.55;9.07;;;;;;;27.38;49.73;101256.50;5014905;28;20372;-78
2023/07/23 07:13:24;;;;;;;11.75;8.80;;;;;;;27.60;49.45;101255.44;5014160;28;20725;-77
2023/07/23 07:15:49;;;;;;;10.10;8.43;;;;;;;27.86;49.11;101259.00;5011760;28;20911;-78
2023/07/23 07:18:15;;;;;;;11.03;8.87;;;;;;;28.01;48.27;101269.09;5012978;28;20725;-76
2023/07/23 07:20:40;;;;;;;10.60;8.40;;;;;;;27.88;48.75;101275.88;5012995;28;20415;-76
2023/07/23 07:23:05;;;;;;;10.80;8.90;;;;;;;27.87;48.12;101267.97;5013692;28;20381;-75
2023/07/23 07:25:31;;;;;;;13.37;9.53;;;;;;;28.02;48.57;101278.91;5032792;28;20542;-76
2023/07/23 07:27:57;;;;;;;10.43;9.03;;;;;;;27.67;47.00;101276.97;5015869;28;20490;-77
2023/07/23 07:30:22;;;;;;;12.47;8.87;;;;;;;27.66;46.42;101287.06;5013464;28;20391;-77
2023/07/23 07:32:48;;;;;;;11.38;9.63;;;;;;;27.70;46.52;101279.97;5013342;28;20384;-76
2023/07/23 07:35:13;;;;;;;12.20;10.80;;;;;;;27.89;46.24;101273.97;5011720;28;20869;-75
2023/07/23 07:37:38;;;;;;;11.20;9.80;;;;;;;28.08;45.11;101277.00;5014167;28;20404;-75
2023/07/23 07:40:05;;;;;;;11.17;8.73;;;;;;;28.15;45.69;101281.06;5013314;28;21031;-77
2023/07/23 07:42:31;;;;;;;10.82;9.63;;;;;;;28.26;45.74;101270.97;5013886;28;20769;-76
2023/07/23 07:44:57;;;;;;;11.30;9.70;;;;;;;28.34;45.51;101264.97;5013144;28;20384;-77
2023/07/23 07:47:22;;;;;;;13.10;11.30;;;;;;;28.46;45.20;101263.84;5014677;28;20449;-76
2023/07/23 07:49:51;;;;;;;13.00;11.23;;;;;;;28.69;44.57;101265.16;5015468;28;20379;-75
2023/07/23 07:52:17;;;;;;;12.60;9.77;;;;;;;28.60;44.30;101260.28;5013368;28;20406;-76
2023/07/23 07:54:42;;;;;;;11.03;9.20;;;;;;;28.71;44.16;101271.16;5012879;28;20795;-76
2023/07/23 07:57:08;;;;;;;11.50;9.40;;;;;;;28.54;44.53;101255.94;5012545;28;20415;-76
2023/07/23 07:59:34;;;;;;;12.85;9.23;;;;;;;28.66;44.44;101247.44;5013206;28;20778;-76
2023/07/23 08:02:00;;;;;;;14.87;10.77;;;;;;;28.76;44.26;101250.13;5013319;28;20474;-75
2023/07/23 08:04:27;;;;;;;11.23;9.77;;;;;;;28.60;44.03;101246.63;5012777;28;20384;-75
2023/07/23 08:06:53;;;;;;;12.33;10.23;;;;;;;28.74;43.96;101244.13;5012021;28;20380;-75
2023/07/23 08:09:21;;;;;;;10.43;9.27;;;;;;;28.71;42.99;101235.69;5012588;28;20376;-75
2023/07/23 08:11:47;;;;;;;11.75;10.55;;;;;;;28.84;43.93;101237.81;5012778;28;20448;-75
2023/07/23 08:14:14;;;;;;;10.93;9.82;;;;;;;28.78;43.98;101244.38;5012422;28;20971;-76
2023/07/23 08:16:40;;;;;;;10.82;9.82;;;;;;;28.92;43.31;101253.59;5013043;28;20376;-77
2023/07/23 08:19:08;;;;;;;10.32;8.57;;;;;;;28.85;43.13;101249.56;5012485;28;20376;-77
2023/07/23 08:21:34;;;;;;;11.13;8.38;;;;;;;28.71;43.03;101249.34;5012679;28;20411;-75
2023/07/23 08:24:00;;;;;;;7.60;6.82;;;;;;;28.52;42.79;101246.34;5013670;28;20475;-75
2023/07/23 08:26:27;;;;;;;9.65;7.78;;;;;;;28.45;43.06;101254.00;5013732;28;20434;-77
2023/07/23 08:28:58;;;;;;;7.35;6.57;;;;;;;28.55;41.89;101268.47;5029261;28;20436;-77
2023/07/23 08:31:24;;;;;;;7.07;6.18;;;;;;;28.35;42.15;101261.13;5013269;28;20483;-76
2023/07/23 08:33:52;;;;;;;8.48;7.28;;;;;;;28.53;41.64;101262.47;5013466;28;20887;-77
2023/07/23 08:36:18;;;;;;;7.32;6.63;;;;;;;28.64;41.37;101263.25;5028700;28;20384;-75
2023/07/23 08:38:44;;;;;;;7.57;6.78;;;;;;;28.77;41.51;101261.84;5012385;28;20486;-77
2023/07/23 08:41:36;;;;;;;8.48;7.57;;;;;;;28.75;41.71;101261.31;5012483;28;20403;-75
2023/07/23 08:44:20;;;;;;;8.05;7.25;;;;;;;28.88;41.75;101248.97;5000647;28;20399;-76
2023/07/23 08:46:46;;;;;;;8.57;7.78;;;;;;;29.11;41.63;101248.31;5011354;28;20379;-76
2023/07/23 08:49:16;;;;;;;8.13;6.80;;;;;;;29.29;41.05;101246.84;5011593;28;20376;-76
2023/07/23 08:51:47;;;;;;;8.30;7.40;;;;;;;29.29;40.95;101244.13;5011508;28;20849;-76
2023/07/23 08:54:15;;;;;;;8.52;7.60;;;;;;;29.45;41.13;101257.69;5027035;28;20721;-76
2023/07/23 08:56:42;;;;;;;9.38;7.00;;;;;;;29.42;41.47;101244.59;5011767;28;20410;-76
2023/07/23 08:59:08;;;;;;;7.72;7.00;;;;;;;29.37;41.05;101245.47;5012419;28;20873;-75
2023/07/23 09:01:39;;;;;;;7.80;7.00;;;;;;;29.81;40.78;101244.59;5018559;28;20404;-76
2023/07/23 09:04:07;;;;;;;7.93;6.93;;;;;;;29.85;40.70;101248.34;5012084;28;20395;-75
2023/07/23 09:06:32;;;;;;;7.78;6.97;;;;;;;29.77;41.13;101250.91;5012548;28;20372;-77
2023/07/23 09:09:03;;;;;;;8.10;7.20;;;;;;;29.94;40.52;101251.28;5012008;28;20372;-76
2023/07/23 09:11:29;;;;;;;9.80;6.60;;;;;;;29.96;40.75;101249.09;5011518;28;20530;-77
2023/07/23 09:14:21;;;;;;;7.95;6.93;;;;;;;30.01;40.60;101254.50;5011652;28;20384;-76
2023/07/23 09:16:49;;;;;;;7.40;6.47;;;;;;;30.05;40.43;101247.38;5010525;28;20411;-77
2023/07/23 09:19:26;;;;;;;6.93;6.13;;;;;;;30.11;40.36;101246.22;5017188;28;20400;-75
2023/07/23 09:21:57;;;;;;;7.40;6.60;;;;;;;30.16;40.32;101250.00;5012914;28;20407;-76
2023/07/23 09:24:23;;;;;;;8.88;7.07;;;;;;;30.36;40.01;101249.81;5011507;28;20379;-77
2023/07/23 09:26:49;;;;;;;9.02;6.55;;;;;;;30.37;40.05;101245.97;5011235;28;20467;-76
2023/07/23 09:29:16;;;;;;;8.80;6.20;;;;;;;30.35;39.82;101250.91;5011124;28;20403;-76
2023/07/23 09:31:45;;;;;;;8.02;6.28;;;;;;;30.06;39.72;101250.91;5012146;28;20376;-77
2023/07/23 09:34:11;;;;;;;7.07;6.38;;;;;;;30.31;40.00;101244.38;5011234;28;20466;-76
2023/07/23 09:36:36;;;;;;;7.97;6.30;;;;;;;30.51;39.47;101253.50;5011474;28;20392;-76
2023/07/23 09:39:04;;;;;;;5.63;4.65;;;;;;;30.31;37.53;101263.53;5012504;28;20408;-76
2023/07/23 09:41:34;;;;;;;5.70;5.00;;;;;;;30.40;37.12;101259.06;5019007;28;20432;-76
2023/07/23 09:44:11;;;;;;;9.00;4.85;;;;;;;30.83;37.01;101266.50;5018119;28;20380;-77
2023/07/23 09:46:47;;;;;;;4.72;4.18;;;;;;;30.54;35.12;101267.41;5018855;28;20398;-75
2023/07/23 09:49:13;;;;;;;4.50;4.10;;;;;;;30.30;35.79;101264.59;5015919;28;20390;-76
2023/07/23 09:51:49;;;;;;;4.03;3.55;;;;;;;30.47;35.35;101264.19;5016620;28;20375;-77
2023/07/23 09:54:16;;;;;;;4.80;4.40;;;;;;;30.21;36.65;101269.88;5015495;28;20384;-77
2023/07/23 09:56:44;;;;;;;5.07;4.57;;;;;;;30.14;36.86;101266.69;5015238;28;20797;-77
2023/07/23 09:59:11;;;;;;;5.43;4.88;;;;;;;30.47;37.32;101262.28;5015428;28;20375;-76
2023/07/23 10:01:37;;;;;;;5.10;4.60;;;;;;;30.72;36.77;101268.56;5015925;28;20458;-78
2023/07/23 10:04:04;;;;;;;6.60;4.80;;;;;;;30.58;35.90;101251.22;5015405;28;20809;-76
2023/07/23 10:06:30;;;;;;;5.15;4.65;;;;;;;30.27;36.06;101246.88;5015231;28;20892;-77
2023/07/23 10:08:56;;;;;;;6.50;5.05;;;;;;;30.19;36.26;101250.22;5015602;28;20388;-75
2023/07/23 10:11:22;;;;;;;6.40;5.70;;;;;;;30.44;36.56;101253.84;5015545;28;20864;-76
2023/07/23 10:13:48;;;;;;;8.47;5.73;;;;;;;30.74;36.56;101255.38;5015523;28;20376;-75
2023/07/23 10:16:40;;;;;;;6.78;5.45;;;;;;;31.06;36.64;101249.25;5016092;28;20515;-75
2023/07/23 10:19:08;;;;;;;6.28;5.68;;;;;;;31.16;35.94;101251.00;5015518;28;20463;-76
2023/07/23 10:21:35;;;;;;;6.43;5.32;;;;;;;30.96;36.17;101256.78;5015238;28;20408;-76
2023/07/23 10:24:02;;;;;;;6.70;6.10;;;;;;;31.03;35.74;101247.09;5015232;28;20387;-75
2023/07/23 10:26:29;;;;;;;6.13;5.53;;;;;;;30.77;36.24;101254.78;5014753;28;20709;-76
2023/07/23 10:29:09;;;;;;;6.93;5.57;;;;;;;30.72;37.02;101243.94;5014812;28;20459;-76
2023/07/23 10:31:38;;;;;;;5.38;4.88;;;;;;;30.64;36.79;101250.03;5014023;28;20442;-75
2023/07/23 10:34:26;;;;;;;7.68;6.10;;;;;;;30.78;36.81;101247.41;5016107;28;20387;-77
2023/07/23 10:37:10;;;;;;;6.07;5.47;;;;;;;30.57;37.19;101247.66;5015065;28;20380;-76
2023/07/23 10:39:50;;;;;;;6.78;6.07;;;;;;;30.82;37.06;101241.03;5013892;28;20872;-76
2023/07/23 10:42:38;;;;;;;6.20;5.50;;;;;;;30.78;35.91;101236.47;5014513;28;20415;-76
2023/07/23 10:45:23;;;;;;;18.48;15.48;;;;;;;31.03;36.08;101233.41;5014304;28;20372;-75
2023/07/23 10:48:00;;;;;;;7.15;5.68;;;;;;;30.93;36.55;101239.00;5014296;28;20415;-76
2023/07/23 10:50:30;;;;;;;5.85;5.32;;;;;;;30.79;36.04;101232.59;5013026;28;20377;-75
2023/07/23 10:53:04;;;;;;;6.50;5.88;;;;;;;30.68;36.96;101226.44;5029532;28;20380;-75
2023/07/23 10:55:35;;;;;;;7.18;6.32;;;;;;;30.96;36.90;101229.41;5016609;28;21152;-76
2023/07/23 10:58:10;;;;;;;7.00;6.30;;;;;;;31.17;36.48;101217.03;5014183;28;20408;-76
2023/07/23 11:00:41;;;;;;;6.95;6.22;;;;;;;31.00;37.11;101216.75;5028753;28;20412;-75
2023/07/23 11:03:11;;;;;;;7.00;5.60;;;;;;;31.00;36.86;101223.03;5014221;28;20385;-75
2023/07/23 11:05:42;;;;;;;6.20;5.10;;;;;;;30.93;37.14;101225.31;5014044;28;20394;-75
2023/07/23 11:08:18;;;;;;;6.32;5.60;;;;;;;31.05;36.26;101224.88;5013416;28;20396;-75
2023/07/23 11:10:57;;;;;;;6.13;5.63;;;;;;;31.10;36.61;101219.34;5013617;28;20884;-75
2023/07/23 11:13:25;;;;;;;6.77;5.80;;;;;;;31.50;36.04;101217.09;5017827;28;20458;-76
2023/07/23 11:15:51;;;;;;;6.47;5.88;;;;;;;31.39;35.96;101221.91;5015950;28;20818;-76
2023/07/23 11:18:18;;;;;;;6.10;5.60;;;;;;;31.23;36.27;101212.31;5013474;28;20385;-76
2023/07/23 11:20:48;;;;;;;6.65;5.97;;;;;;;31.35;36.25;101215.41;5013266;28;20407;-76
2023/07/23 11:23:16;;;;;;;7.00;5.65;;;;;;;31.55;36.08;101208.00;5013093;28;20384;-75